Time;durP1;ratioP1;P1;durP2;ratioP2;P2;SDS_P1;SDS_P2;PMS_P1;PMS_P2;Temp;Humidity;BMP_temperature;BMP_pressure;BME280_temperature;BME280_humidity;BME280_pressure;Samples;Min_cycle;Max_cycle;Signal;HPM_P1;HPM_P2
2022/07/07 00:00:08;;;;;;;3.23;1.90;;;;;;;20.88;63.13;100265.16;123460;1099;104188;-75
2022/07/07 00:03:00;;;;;;;6.17;1.90;;;;;;;20.88;62.97;100267.83;123473;1099;105370;-75
2022/07/07 00:05:31;;;;;;;4.37;1.60;;;;;;;20.90;62.95;100272.27;123413;1099;104344;-74
2022/07/07 00:08:03;;;;;;;1.55;1.45;;;;;;;20.94;63.01;100270.44;123422;1098;104319;-74
2022/07/07 00:10:35;;;;;;;3.93;1.80;;;;;;;20.93;63.32;100277.56;123443;1097;104326;-75
2022/07/07 00:13:06;;;;;;;3.13;1.60;;;;;;;20.86;63.21;100274.98;123458;1099;104229;-75
2022/07/07 00:15:38;;;;;;;2.53;1.83;;;;;;;20.81;63.29;100278.56;123449;1099;104399;-75
2022/07/07 00:18:10;;;;;;;1.90;1.40;;;;;;;20.77;63.21;100279.52;123414;1099;104355;-75
2022/07/07 00:20:42;;;;;;;1.57;1.47;;;;;;;20.74;63.23;100279.54;123619;1099;104338;-74
2022/07/07 00:23:13;;;;;;;3.17;1.77;;;;;;;20.73;62.71;100276.89;123630;1099;105018;-74
2022/07/07 00:25:45;;;;;;;2.80;1.87;;;;;;;20.69;63.62;100278.67;123632;1099;104261;-75
2022/07/07 00:28:17;;;;;;;1.80;1.70;;;;;;;20.64;63.35;100288.47;123580;1099;104232;-74
2022/07/07 00:30:48;;;;;;;2.70;1.30;;;;;;;20.61;63.85;100280.50;123571;1099;104540;-75
2022/07/07 00:33:20;;;;;;;2.87;1.67;;;;;;;20.60;63.80;100276.06;123651;1099;104272;-74
2022/07/07 00:35:52;;;;;;;1.93;1.53;;;;;;;20.52;63.89;100283.25;123436;1099;104332;-75
2022/07/07 00:38:24;;;;;;;2.37;1.80;;;;;;;20.50;63.88;100277.93;123442;1099;104261;-74
2022/07/07 00:40:56;;;;;;;1.80;1.70;;;;;;;20.46;63.72;100278.88;123462;1097;104335;-75
2022/07/07 00:43:28;;;;;;;3.60;1.70;;;;;;;20.41;64.37;100278.01;123471;1098;104802;-75
2022/07/07 00:46:00;;;;;;;2.57;1.40;;;;;;;20.36;64.44;100280.70;123453;1099;104332;-75
2022/07/07 00:48:33;;;;;;;1.70;1.60;;;;;;;20.31;64.11;100282.53;123409;1098;104341;-75
2022/07/07 00:51:07;;;;;;;1.80;1.50;;;;;;;20.33;64.48;100277.20;123467;1099;104641;-75
2022/07/07 00:53:40;;;;;;;2.65;1.65;;;;;;;20.31;64.77;100281.66;123463;1099;104264;-75
2022/07/07 00:56:11;;;;;;;3.35;1.70;;;;;;;20.29;63.80;100279.02;123597;1099;104258;-75
2022/07/07 00:58:43;;;;;;;5.50;1.70;;;;;;;20.33;64.33;100288.73;123470;1099;104258;-75
2022/07/07 01:01:15;;;;;;;3.60;1.60;;;;;;;20.31;64.36;100287.86;123445;1099;104194;-75
2022/07/07 01:03:46;;;;;;;3.27;1.43;;;;;;;20.29;64.93;100293.20;123460;1096;104156;-74
2022/07/07 01:06:19;;;;;;;2.23;1.53;;;;;;;20.24;63.97;100295.03;123459;1099;104350;-75
2022/07/07 01:08:52;;;;;;;3.25;2.10;;;;;;;20.23;64.87;100290.59;123614;1098;104373;-76
2022/07/07 01:11:22;;;;;;;;;;;;;;;20.20;64.92;100289.73;123466;1099;104229;-75
2022/07/07 01:13:54;;;;;;;5.13;1.80;;;;;;;20.18;64.38;100291.50;123558;1099;104255;-76
2022/07/07 01:16:26;;;;;;;1.77;1.60;;;;;;;20.13;65.03;100298.65;123505;1099;104261;-75
2022/07/07 01:18:57;;;;;;;2.57;1.67;;;;;;;20.09;65.41;100293.34;123541;1098;104403;-74
2022/07/07 01:21:32;;;;;;;3.40;1.60;;;;;;;20.04;65.24;100305.81;123543;1099;104843;-75
2022/07/07 01:24:04;;;;;;;1.57;1.30;;;;;;;20.03;65.23;100298.70;123465;1096;104223;-76
2022/07/07 01:26:38;;;;;;;2.13;1.87;;;;;;;19.97;66.48;100309.39;123541;1096;104259;-75
2022/07/07 01:29:09;;;;;;;3.10;1.80;;;;;;;19.91;66.21;100304.11;123540;1099;104238;-75
2022/07/07 01:31:41;;;;;;;2.00;1.90;;;;;;;19.87;66.30;100305.04;123529;1099;104428;-75
2022/07/07 01:34:12;;;;;;;3.87;1.73;;;;;;;19.84;66.29;100308.59;123562;1099;104331;-74
2022/07/07 01:36:44;;;;;;;3.57;1.87;;;;;;;19.81;66.69;100302.41;123602;1099;104382;-75
2022/07/07 01:39:17;;;;;;;2.80;1.67;;;;;;;19.76;66.71;100307.72;123477;1099;105479;-76
2022/07/07 01:41:48;;;;;;;4.80;1.93;;;;;;;19.71;66.69;100307.74;123486;1096;104223;-75
2022/07/07 01:44:20;;;;;;;2.40;1.80;;;;;;;19.67;66.71;100307.77;123458;1097;104376;-75
2022/07/07 01:46:52;;;;;;;2.43;1.57;;;;;;;19.64;66.57;100311.31;123420;1099;104389;-76
2022/07/07 01:49:24;;;;;;;2.10;1.77;;;;;;;19.63;66.04;100316.64;123578;1098;104289;-76
2022/07/07 01:51:56;;;;;;;6.23;2.00;;;;;;;19.60;66.21;100311.34;123556;1099;104258;-75
2022/07/07 01:54:28;;;;;;;2.53;1.70;;;;;;;19.55;66.37;100317.55;123563;1097;104252;-76
2022/07/07 01:57:00;;;;;;;3.23;1.80;;;;;;;19.53;66.50;100302.50;123609;1099;104232;-75
2022/07/07 01:59:33;;;;;;;4.40;2.00;;;;;;;19.52;66.65;100314.90;123507;1099;104498;-76
2022/07/07 02:02:06;;;;;;;2.77;1.77;;;;;;;19.50;66.78;100316.69;123508;1099;104418;-76
2022/07/07 02:04:37;;;;;;;3.20;1.70;;;;;;;19.50;66.82;100322.02;123533;1099;104556;-74
2022/07/07 02:07:09;;;;;;;2.23;1.70;;;;;;;19.50;66.51;100324.67;123586;1099;104306;-74
2022/07/07 02:09:40;;;;;;;3.20;1.70;;;;;;;19.48;66.06;100322.94;123490;1099;105498;-75
2022/07/07 02:12:12;;;;;;;2.40;1.73;;;;;;;19.48;66.87;100321.14;123446;1098;104319;-74
2022/07/07 02:14:44;;;;;;;3.97;1.80;;;;;;;19.45;66.49;100331.80;123488;1099;104417;-75
2022/07/07 02:17:16;;;;;;;2.40;1.60;;;;;;;19.47;66.95;100327.34;123437;1099;104498;-75
2022/07/07 02:19:47;;;;;;;3.27;1.90;;;;;;;19.48;66.90;100330.92;123449;1099;104893;-75
2022/07/07 02:22:19;;;;;;;3.50;1.60;;;;;;;19.47;66.50;100331.80;123457;1099;104437;-75
2022/07/07 02:24:50;;;;;;;1.80;1.70;;;;;;;19.46;66.57;100333.58;123475;1099;104358;-74
2022/07/07 02:27:22;;;;;;;1.73;1.50;;;;;;;19.43;67.20;100328.27;123537;1098;104846;-74
2022/07/07 02:29:54;;;;;;;1.50;1.40;;;;;;;19.43;67.10;100338.00;123602;1099;104398;-75
2022/07/07 02:32:25;;;;;;;3.83;1.90;;;;;;;19.42;67.33;100339.79;123572;1097;104421;-75
2022/07/07 02:34:58;;;;;;;4.07;2.23;;;;;;;19.39;67.33;100342.46;123698;1099;104348;-74
2022/07/07 02:37:30;;;;;;;1.80;1.70;;;;;;;19.36;67.33;100358.44;123767;1099;104229;-74
2022/07/07 02:40:02;;;;;;;2.77;1.50;;;;;;;19.39;66.97;100353.10;123671;1099;104361;-75
2022/07/07 02:42:33;;;;;;;3.20;1.65;;;;;;;19.40;66.81;100358.42;123685;1099;104233;-75
2022/07/07 02:45:06;;;;;;;4.53;1.50;;;;;;;19.42;67.49;100360.20;123706;1099;104379;-74
2022/07/07 02:47:38;;;;;;;2.67;1.87;;;;;;;19.41;67.32;100361.95;123595;1099;104261;-75
2022/07/07 02:50:11;;;;;;;2.27;1.70;;;;;;;19.42;67.27;100369.06;123471;1099;104316;-75
2022/07/07 02:52:42;;;;;;;4.20;1.98;;;;;;;19.44;67.39;100372.59;123733;1099;104230;-75
2022/07/07 02:55:15;;;;;;;5.00;1.80;;;;;;;19.46;67.09;100369.92;123459;1099;104319;-74
2022/07/07 02:57:46;;;;;;;3.60;1.83;;;;;;;19.52;66.93;100369.91;123496;1099;104258;-75
2022/07/07 03:00:19;;;;;;;3.67;1.93;;;;;;;19.53;67.31;100367.24;123472;1099;104257;-75
2022/07/07 03:02:51;;;;;;;3.40;1.90;;;;;;;19.57;67.09;100374.34;123474;1099;104348;-74
2022/07/07 03:05:23;;;;;;;2.20;1.80;;;;;;;19.59;67.52;100374.33;123441;1099;104344;-75
2022/07/07 03:07:56;;;;;;;3.73;2.00;;;;;;;19.65;67.79;100363.67;123522;1099;104307;-75
2022/07/07 03:10:28;;;;;;;3.13;1.87;;;;;;;19.68;67.34;100371.64;123457;1097;104271;-75
2022/07/07 03:13:00;;;;;;;4.57;1.70;;;;;;;19.73;67.46;100372.50;123659;1099;104284;-75
2022/07/07 03:15:31;;;;;;;1.83;1.70;;;;;;;19.78;66.78;100360.99;123604;1099;104498;-75
2022/07/07 03:18:03;;;;;;;2.40;1.70;;;;;;;19.78;66.85;100374.30;123621;1098;104345;-74
2022/07/07 03:20:35;;;;;;;3.80;1.97;;;;;;;19.79;67.11;100370.73;123705;1098;104288;-75
2022/07/07 03:23:07;;;;;;;4.27;1.83;;;;;;;19.83;67.25;100369.83;123755;1097;104344;-76
2022/07/07 03:25:38;;;;;;;6.20;1.77;;;;;;;19.86;66.53;100369.82;123831;1098;104386;-74
2022/07/07 03:28:10;;;;;;;3.40;1.70;;;;;;;19.89;66.23;100372.47;123917;1099;104344;-75
2022/07/07 03:30:42;;;;;;;4.70;1.90;;;;;;;19.90;66.89;100372.46;123915;1099;104268;-74
2022/07/07 03:33:14;;;;;;;4.67;1.80;;;;;;;19.99;66.30;100373.30;123694;1099;104354;-74
2022/07/07 03:35:45;;;;;;;4.27;2.03;;;;;;;20.04;66.42;100376.81;123759;1099;104365;-75
2022/07/07 03:38:17;;;;;;;11.87;3.20;;;;;;;20.06;66.20;100383.92;123609;1099;104363;-74
2022/07/07 03:40:49;;;;;;;2.13;1.77;;;;;;;20.09;66.30;100381.23;123557;1098;104388;-76
2022/07/07 03:43:21;;;;;;;4.70;2.00;;;;;;;20.08;66.23;100384.78;123589;1099;104364;-75
2022/07/07 03:45:54;;;;;;;3.87;1.70;;;;;;;20.11;66.17;100391.89;123622;1099;104258;-75
2022/07/07 03:48:28;;;;;;;2.60;2.20;;;;;;;20.16;66.09;100397.19;123652;1099;104229;-75
2022/07/07 03:51:00;;;;;;;2.73;1.87;;;;;;;20.23;65.37;100396.28;123541;1099;104364;-75
2022/07/07 03:53:32;;;;;;;4.23;2.10;;;;;;;20.31;65.88;100396.23;123592;1097;104245;-76
2022/07/07 03:56:05;;;;;;;6.08;2.20;;;;;;;20.34;66.31;100394.42;123613;1099;104681;-74
2022/07/07 03:58:37;;;;;;;7.10;2.00;;;;;;;20.40;65.67;100402.38;123640;1098;104252;-75
2022/07/07 04:01:08;;;;;;;4.50;2.53;;;;;;;20.45;65.80;100402.35;123645;1099;104327;-74
2022/07/07 04:03:40;;;;;;;6.23;2.20;;;;;;;20.45;65.66;100403.23;123539;1099;104259;-75
2022/07/07 04:06:12;;;;;;;1.87;1.70;;;;;;;20.46;65.70;100398.80;123656;1098;104386;-74
2022/07/07 04:08:43;;;;;;;6.23;2.00;;;;;;;20.45;65.69;100400.56;123674;1099;104348;-74
2022/07/07 04:11:15;;;;;;;3.13;1.80;;;;;;;20.44;64.60;100405.90;123576;1099;104264;-75
2022/07/07 04:13:46;;;;;;;2.97;1.70;;;;;;;20.46;65.57;100399.68;123623;1099;104264;-76
2022/07/07 04:16:18;;;;;;;4.90;1.93;;;;;;;20.48;65.26;100403.20;123629;1099;104291;-75
2022/07/07 04:18:50;;;;;;;2.23;1.90;;;;;;;20.51;65.17;100417.43;123681;1099;104332;-76
2022/07/07 04:21:21;;;;;;;5.53;1.90;;;;;;;20.53;64.42;100415.63;123555;1099;104693;-75
2022/07/07 04:23:52;;;;;;;3.40;1.90;;;;;;;20.54;64.36;100412.95;123615;1097;104281;-76
2022/07/07 04:26:24;;;;;;;3.23;1.87;;;;;;;20.54;64.09;100401.42;123841;1099;104203;-76
2022/07/07 04:28:55;;;;;;;8.37;2.43;;;;;;;20.57;64.72;100414.69;123696;1099;104310;-75
2022/07/07 04:31:27;;;;;;;4.20;1.87;;;;;;;20.58;63.74;100414.69;123951;1096;104452;-76
2022/07/07 04:33:58;;;;;;;5.17;2.20;;;;;;;20.61;63.95;100421.78;123929;1098;104258;-76
2022/07/07 04:36:30;;;;;;;3.43;1.90;;;;;;;20.70;63.93;100424.42;123834;1098;104261;-76
2022/07/07 04:39:01;;;;;;;2.20;2.00;;;;;;;20.74;63.45;100415.52;123808;1099;104258;-76
2022/07/07 04:41:33;;;;;;;2.57;1.87;;;;;;;20.78;64.05;100422.58;123875;1099;104243;-76
2022/07/07 04:44:06;;;;;;;3.05;1.90;;;;;;;20.80;64.05;100415.47;124020;1099;104434;-75
2022/07/07 04:46:39;;;;;;;2.73;2.00;;;;;;;20.90;63.61;100418.94;123808;1098;103325;-77
2022/07/07 04:49:10;;;;;;;4.28;1.77;;;;;;;20.94;63.47;100427.79;124067;1099;104191;-77
2022/07/07 04:51:42;;;;;;;5.40;2.37;;;;;;;21.01;63.33;100416.19;124018;1099;104236;-76
2022/07/07 04:54:13;;;;;;;4.70;1.83;;;;;;;21.03;63.02;100418.84;123885;1097;104198;-76
2022/07/07 04:56:45;;;;;;;4.40;1.90;;;;;;;21.01;62.29;100413.52;124041;1098;104191;-76
2022/07/07 04:59:16;;;;;;;2.10;1.80;;;;;;;20.99;62.01;100413.53;124082;1098;104242;-74
2022/07/07 05:01:48;;;;;;;4.40;2.20;;;;;;;20.96;62.18;100418.02;124024;1099;104268;-75
2022/07/07 05:04:20;;;;;;;2.90;1.90;;;;;;;20.98;62.41;100419.75;124195;1096;104258;-76
2022/07/07 05:06:53;;;;;;;7.67;2.20;;;;;;;21.00;61.76;100414.41;124282;1099;104283;-76
2022/07/07 05:09:26;;;;;;;2.60;1.77;;;;;;;21.01;61.51;100406.39;124208;1099;104230;-76
2022/07/07 05:11:57;;;;;;;2.52;1.80;;;;;;;21.01;61.49;100413.52;124614;1099;104231;-77
2022/07/07 05:14:30;;;;;;;3.30;2.27;;;;;;;21.06;61.93;100416.15;124198;1098;104259;-75
2022/07/07 05:17:01;;;;;;;14.63;3.40;;;;;;;21.08;61.97;100427.67;124292;1098;104380;-76
2022/07/07 05:19:33;;;;;;;5.10;1.97;;;;;;;21.13;61.66;100418.75;124370;1099;105025;-77
2022/07/07 05:22:04;;;;;;;8.80;2.23;;;;;;;21.19;61.01;100413.36;124389;1099;104220;-76
2022/07/07 05:24:37;;;;;;;4.00;2.00;;;;;;;21.26;61.11;100423.97;124379;1097;104689;-78
2022/07/07 05:27:09;;;;;;;8.93;2.50;;;;;;;21.32;61.23;100418.58;124437;1099;103187;-75
2022/07/07 05:29:43;;;;;;;6.83;1.90;;;;;;;21.37;59.94;100417.61;124637;1099;104225;-76
2022/07/07 05:32:15;;;;;;;2.87;1.90;;;;;;;21.43;60.16;100413.14;124613;1099;104214;-75
2022/07/07 05:34:47;;;;;;;8.77;2.30;;;;;;;21.45;60.16;100414.87;124814;1099;104190;-78
2022/07/07 05:37:20;;;;;;;3.23;2.03;;;;;;;21.43;60.00;100427.36;124670;1099;103423;-76
2022/07/07 05:39:53;;;;;;;8.48;2.58;;;;;;;21.46;60.64;100411.30;124704;1099;104220;-76
2022/07/07 05:42:25;;;;;;;8.07;2.70;;;;;;;21.51;59.26;100408.62;124937;1096;104187;-78
2022/07/07 05:44:58;;;;;;;5.58;2.60;;;;;;;21.45;59.15;100414.87;125178;1099;104341;-75
2022/07/07 05:47:29;;;;;;;10.30;2.30;;;;;;;21.43;59.18;100411.34;124923;1099;104057;-77
2022/07/07 05:50:05;;;;;;;6.43;2.57;;;;;;;21.43;59.84;100421.14;125080;1099;104206;-76
2022/07/07 05:52:37;;;;;;;9.23;2.60;;;;;;;21.42;59.57;100414.90;125054;1099;102820;-74
2022/07/07 05:55:11;;;;;;;6.97;1.87;;;;;;;21.44;58.71;100413.13;125046;1099;104217;-78
2022/07/07 05:57:46;;;;;;;4.97;2.00;;;;;;;21.43;58.33;100407.80;127059;1097;102776;-74
2022/07/07 06:00:20;;;;;;;5.57;1.83;;;;;;;21.52;58.52;100415.74;126951;1098;102278;-74
2022/07/07 06:02:51;;;;;;;7.60;2.10;;;;;;;21.62;58.87;100413.84;126910;1099;102158;-75
2022/07/07 06:05:23;;;;;;;9.77;2.63;;;;;;;21.71;59.07;100421.75;126938;1096;101823;-76
2022/07/07 06:07:55;;;;;;;6.67;2.60;;;;;;;21.83;58.13;100420.70;127014;1099;102122;-76
2022/07/07 06:10:28;;;;;;;6.93;2.63;;;;;;;21.98;58.72;100415.18;126175;1099;103001;-76
2022/07/07 06:13:04;;;;;;;6.73;2.60;;;;;;;22.15;58.72;100417.64;124950;1099;104374;-76
2022/07/07 06:15:38;;;;;;;2.67;2.43;;;;;;;22.20;56.89;100420.25;124847;1100;104018;-77
2022/07/07 06:18:10;;;;;;;3.77;2.40;;;;;;;22.11;57.64;100415.93;124914;1098;104236;-76
2022/07/07 06:20:45;;;;;;;4.53;2.57;;;;;;;22.02;57.65;100435.62;124773;1098;104047;-77
2022/07/07 06:23:20;;;;;;;5.30;2.20;;;;;;;21.95;57.76;100427.70;124851;1099;104280;-77
2022/07/07 06:25:57;;;;;;;4.60;2.70;;;;;;;21.87;56.85;100420.66;124847;1099;104258;-76
2022/07/07 06:28:29;;;;;;;7.63;2.20;;;;;;;21.88;57.56;100414.42;125099;1099;104289;-77
2022/07/07 06:31:02;;;;;;;5.23;2.50;;;;;;;21.89;56.92;100407.28;124805;1099;104300;-79
2022/07/07 06:33:35;;;;;;;;;;;;;;;21.92;57.22;100409.04;124700;1099;104409;-75
2022/07/07 06:36:08;;;;;;;3.20;2.00;;;;;;;21.93;57.45;100424.17;124949;1099;104277;-77
2022/07/07 06:38:40;;;;;;;8.13;2.40;;;;;;;21.97;57.45;100402.75;126829;1099;102830;-79
2022/07/07 06:41:12;;;;;;;3.03;1.80;;;;;;;22.04;57.08;100414.23;125307;1099;101950;-77
2022/07/07 06:43:44;;;;;;;2.45;1.85;;;;;;;22.04;56.80;100415.10;124854;1099;103485;-77
2022/07/07 06:46:16;;;;;;;4.50;2.10;;;;;;;22.10;57.22;100413.28;124843;1099;104195;-78
2022/07/07 06:48:51;;;;;;;2.77;2.03;;;;;;;22.04;56.39;100400.88;124673;1099;104280;-78
2022/07/07 06:51:25;;;;;;;1.83;1.40;;;;;;;22.11;55.74;100410.59;124691;1098;104160;-78
2022/07/07 06:54:00;;;;;;;2.97;1.70;;;;;;;22.12;56.42;100412.33;124856;1099;104217;-75
2022/07/07 06:56:32;;;;;;;5.30;2.17;;;;;;;22.13;55.64;100403.42;124765;1099;104464;-77
2022/07/07 06:59:04;;;;;;;2.50;1.60;;;;;;;22.20;56.32;100398.87;124966;1099;102864;-78
2022/07/07 07:01:36;;;;;;;5.80;2.00;;;;;;;22.25;55.50;100397.91;124897;1099;102940;-77
2022/07/07 07:04:13;;;;;;;6.50;2.20;;;;;;;22.38;56.18;100403.12;124788;1099;104366;-74
2022/07/07 07:06:47;;;;;;;2.75;1.82;;;;;;;22.54;55.66;100398.42;116088;1099;10001852;-74
2022/07/07 07:09:22;;;;;;;7.45;2.20;;;;;;;22.72;55.97;100392.78;124874;1097;102995;-76
2022/07/07 07:12:15;;;;;;;4.53;2.17;;;;;;;22.92;55.47;100389.78;124766;1097;104284;-75
2022/07/07 07:14:47;;;;;;;11.07;2.23;;;;;;;23.13;55.13;100387.67;124807;1099;104166;-74
2022/07/07 07:17:18;;;;;;;10.30;2.03;;;;;;;23.32;55.00;100382.86;125030;1099;102460;-73
2022/07/07 07:20:02;;;;;;;4.40;1.83;;;;;;;23.47;54.30;100389.73;125095;1099;103192;-76
2022/07/07 07:22:47;;;;;;;2.03;1.70;;;;;;;23.51;53.31;100383.37;124712;1099;103373;-74
2022/07/07 07:25:19;;;;;;;3.47;1.97;;;;;;;23.57;53.14;100387.74;124906;1098;102857;-76
2022/07/07 07:27:55;;;;;;;5.10;2.17;;;;;;;23.68;53.31;100389.30;124778;1099;105197;-75
2022/07/07 07:30:33;;;;;;;6.67;2.00;;;;;;;23.76;52.34;100391.80;124828;1099;103862;-75
2022/07/07 07:33:06;;;;;;;5.10;1.70;;;;;;;23.74;52.24;100396.31;124719;1099;104214;-77
2022/07/07 07:35:42;;;;;;;2.37;1.80;;;;;;;23.81;52.35;100389.02;125447;1099;103069;-76
2022/07/07 07:38:15;;;;;;;5.10;2.00;;;;;;;24.02;52.11;100383.25;124950;1099;104418;-74
2022/07/07 07:40:46;;;;;;;3.33;1.77;;;;;;;24.25;52.08;100386.33;116276;1099;10001099;-75
2022/07/07 07:43:18;;;;;;;2.57;1.80;;;;;;;24.55;51.63;100390.11;124896;1099;103633;-76
2022/07/07 07:45:52;;;;;;;2.70;1.70;;;;;;;24.78;51.05;100391.38;124863;1099;104303;-75
2022/07/07 07:48:25;;;;;;;5.30;2.62;;;;;;;24.95;51.06;100391.85;124816;1098;102441;-75
2022/07/07 07:50:56;;;;;;;;;;;;;;;25.15;49.52;100393.13;124928;1099;104158;-76
2022/07/07 07:53:29;;;;;;;4.00;2.80;;;;;;;25.37;50.32;100388.98;124682;1099;104173;-76
2022/07/07 07:56:06;;;;;;;5.17;2.43;;;;;;;25.56;48.97;100388.48;124626;1099;104304;-75
2022/07/07 07:58:39;;;;;;;2.80;1.77;;;;;;;25.68;48.58;100389.92;124579;1099;104340;-77
2022/07/07 08:01:11;;;;;;;4.15;1.67;;;;;;;25.73;47.13;100391.56;124754;1099;104169;-78
2022/07/07 08:03:43;;;;;;;4.57;1.60;;;;;;;25.71;46.60;100388.05;124813;1099;104144;-75
2022/07/07 08:06:14;;;;;;;6.60;1.90;;;;;;;25.83;47.59;100384.97;124912;1099;104191;-77
2022/07/07 08:08:48;;;;;;;7.15;1.82;;;;;;;26.09;47.35;100380.67;124903;1099;102934;-74
2022/07/07 08:11:21;;;;;;;1.70;1.60;;;;;;;26.27;46.83;100384.62;124952;1099;104245;-76
2022/07/07 08:13:53;;;;;;;5.75;1.70;;;;;;;26.36;46.05;100386.12;124750;1099;104235;-76
2022/07/07 08:16:25;;;;;;;4.07;1.77;;;;;;;26.35;46.26;100381.66;124995;1099;104235;-77
2022/07/07 08:18:56;;;;;;;3.80;1.73;;;;;;;26.44;46.13;100389.44;124850;1099;104203;-76
2022/07/07 08:21:40;;;;;;;9.63;2.20;;;;;;;26.61;45.59;100390.71;124882;1097;104379;-76
2022/07/07 08:24:13;;;;;;;6.72;2.37;;;;;;;26.78;44.37;100398.27;124749;1099;104211;-76
2022/07/07 08:26:53;;;;;;;5.80;1.67;;;;;;;26.74;43.13;100394.81;124754;1099;102464;-75
2022/07/07 08:29:30;;;;;;;4.97;1.67;;;;;;;26.69;43.97;100386.89;124725;1097;112516;-77
2022/07/07 08:32:03;;;;;;;5.30;1.70;;;;;;;26.63;43.45;100384.36;124758;1099;104299;-76
2022/07/07 08:34:41;;;;;;;2.90;1.70;;;;;;;26.77;43.75;100399.19;124678;1099;104209;-75
2022/07/07 08:37:16;;;;;;;4.53;1.60;;;;;;;26.76;43.20;100387.55;124514;1099;104473;-76
2022/07/07 08:39:50;;;;;;;4.87;1.80;;;;;;;26.89;43.44;100391.58;124598;1099;104271;-75
2022/07/07 08:42:22;;;;;;;3.00;1.35;;;;;;;27.07;43.33;100387.39;124638;1098;104248;-79
2022/07/07 08:44:54;;;;;;;2.30;1.70;;;;;;;27.23;43.10;100390.42;124848;1099;104275;-77
2022/07/07 08:47:27;;;;;;;2.47;1.40;;;;;;;27.36;42.83;100388.23;124755;1099;104423;-75
2022/07/07 08:49:59;;;;;;;3.62;1.47;;;;;;;27.35;41.79;100393.67;124800;1097;104159;-76
2022/07/07 08:52:32;;;;;;;4.75;1.72;;;;;;;27.58;42.59;100387.42;124968;1099;102615;-78
2022/07/07 08:55:07;;;;;;;1.90;1.50;;;;;;;27.82;41.84;100399.13;124928;1099;104300;-78
2022/07/07 08:57:40;;;;;;;5.27;1.47;;;;;;;27.93;41.51;100387.94;124799;1099;104242;-77
2022/07/07 09:00:13;;;;;;;1.60;1.50;;;;;;;27.80;41.45;100398.31;124829;1099;103003;-77
2022/07/07 09:02:49;;;;;;;4.47;1.40;;;;;;;27.64;39.94;100397.98;125125;1099;104166;-78
2022/07/07 09:05:22;;;;;;;2.13;1.40;;;;;;;27.72;41.55;100390.52;124772;1098;104246;-78
2022/07/07 09:07:55;;;;;;;2.85;1.50;;;;;;;27.85;41.33;100384.66;124935;1099;104360;-79
2022/07/07 09:10:37;;;;;;;3.83;1.30;;;;;;;27.90;40.42;100398.84;124897;1099;104287;-78
2022/07/07 09:13:23;;;;;;;4.10;1.20;;;;;;;28.00;40.90;100388.60;125034;1099;104293;-79
2022/07/07 09:15:58;;;;;;;4.90;1.30;;;;;;;27.85;40.48;100398.14;127027;1098;102086;-77
2022/07/07 09:18:35;;;;;;;3.67;1.40;;;;;;;27.70;40.87;100397.75;126408;1098;102469;-78
2022/07/07 09:21:26;;;;;;;5.67;1.50;;;;;;;27.71;40.78;100393.27;124843;1099;104289;-76
2022/07/07 09:23:59;;;;;;;4.43;1.67;;;;;;;27.71;40.80;100382.48;126255;1098;102462;-77
2022/07/07 09:26:42;;;;;;;2.53;1.50;;;;;;;27.72;40.40;100392.30;124859;1098;104242;-77
2022/07/07 09:29:14;;;;;;;2.67;1.40;;;;;;;27.56;40.39;100389.30;124948;1099;104682;-77
2022/07/07 09:31:59;;;;;;;3.65;1.70;;;;;;;27.52;40.90;100383.16;124851;1099;104188;-78
2022/07/07 09:34:34;;;;;;;5.17;1.77;;;;;;;27.56;40.67;100382.09;124849;1099;103851;-79
2022/07/07 09:40:08;;;;;;;2.57;1.50;;;;;;;27.45;40.23;100397.78;126534;1099;104351;-77
2022/07/07 09:42:39;;;;;;;5.10;1.23;;;;;;;27.39;40.05;100390.78;124946;1099;104303;-78
2022/07/07 09:45:17;;;;;;;1.40;1.30;;;;;;;27.37;40.50;100410.65;125075;1099;104165;-79
2022/07/07 09:47:51;;;;;;;2.13;1.40;;;;;;;27.37;40.53;100391.80;125038;1098;104242;-78
2022/07/07 09:50:26;;;;;;;2.23;1.20;;;;;;;27.20;39.88;100385.14;124897;1099;105409;-77
2022/07/07 09:52:58;;;;;;;2.87;1.50;;;;;;;27.16;40.10;100391.59;125031;1098;104303;-78
2022/07/07 09:55:35;;;;;;;2.97;1.50;;;;;;;27.19;40.39;100386.09;125080;1099;103945;-80
2022/07/07 09:58:08;;;;;;;4.93;1.40;;;;;;;27.08;40.15;100391.85;125173;1099;104361;-77
2022/07/07 10:00:40;;;;;;;3.33;1.25;;;;;;;26.99;40.23;100385.88;125372;1099;103192;-80
2022/07/07 10:03:12;;;;;;;2.80;1.37;;;;;;;27.02;40.17;100386.68;125045;1099;104275;-79
2022/07/07 10:05:46;;;;;;;1.40;1.30;;;;;;;27.11;39.96;100384.59;125009;1099;103307;-79
2022/07/07 10:08:18;;;;;;;2.80;1.33;;;;;;;27.13;39.79;100393.48;125118;1098;104373;-79
2022/07/07 10:10:56;;;;;;;1.77;1.40;;;;;;;27.12;39.76;100392.62;125051;1099;104644;-79
2022/07/07 10:13:30;;;;;;;1.10;1.07;;;;;;;27.14;40.04;100398.82;125127;1099;103040;-78
2022/07/07 10:16:05;;;;;;;4.87;1.30;;;;;;;27.25;39.53;100385.88;125491;1098;104382;-77
2022/07/07 10:18:37;;;;;;;3.43;1.63;;;;;;;27.34;39.69;100386.52;125336;1099;104345;-78
2022/07/07 10:21:09;;;;;;;3.60;1.13;;;;;;;27.32;39.91;100385.70;125173;1099;103396;-78
2022/07/07 10:23:42;;;;;;;20.63;17.33;;;;;;;27.29;39.52;100381.25;125149;1099;104418;-79
2022/07/07 10:26:13;;;;;;;6.03;3.30;;;;;;;27.37;39.44;100389.97;125001;1099;104357;-79
2022/07/07 10:29:00;;;;;;;5.33;1.63;;;;;;;27.41;40.05;100386.23;125252;1099;104398;-77
2022/07/07 10:31:33;;;;;;;3.00;1.40;;;;;;;27.48;39.23;100388.71;125350;1099;104229;-78
2022/07/07 10:34:08;;;;;;;6.87;1.17;;;;;;;27.46;39.39;100388.77;125287;1099;103651;-77
2022/07/07 10:37:12;;;;;;;5.87;1.50;;;;;;;27.44;39.01;100383.44;125491;1099;102611;-77
2022/07/07 10:39:49;;;;;;;6.00;1.33;;;;;;;27.66;38.99;100374.56;125139;1099;104195;-77
2022/07/07 10:43:00;;;;;;;8.13;1.30;;;;;;;27.82;39.15;100369.47;125103;1099;104201;-75
2022/07/07 10:45:32;;;;;;;5.33;1.60;;;;;;;27.95;38.42;100375.30;124837;1099;104239;-77
2022/07/07 10:48:31;;;;;;;1.67;1.50;;;;;;;28.03;37.98;100388.48;124998;1099;104370;-78
2022/07/07 10:54:06;;;;;;;7.00;1.87;;;;;;;27.93;37.32;100391.50;115825;1102;10001042;-76
2022/07/07 10:57:13;;;;;;;2.93;1.20;;;;;;;27.80;37.36;100392.92;124646;1102;104162;-77
2022/07/07 11:00:13;;;;;;;1.60;1.43;;;;;;;27.77;37.65;100384.95;124371;1102;104680;-77
2022/07/07 11:02:52;;;;;;;3.60;1.47;;;;;;;27.89;37.47;100386.28;124335;1102;104402;-77
2022/07/07 11:05:37;;;;;;;1.43;1.30;;;;;;;27.94;37.53;100379.78;124388;1102;104220;-76
2022/07/07 11:08:19;;;;;;;2.17;1.30;;;;;;;28.09;37.50;100394.52;124398;1102;103596;-77
2022/07/07 11:11:01;;;;;;;3.17;1.63;;;;;;;28.20;37.14;100387.83;124131;1102;102534;-76
2022/07/07 11:13:36;;;;;;;5.80;2.00;;;;;;;28.20;38.05;100391.39;124004;1102;103036;-77
2022/07/07 11:16:23;;;;;;;2.43;2.23;;;;;;;28.11;38.65;100380.97;123970;1102;104197;-76
2022/07/07 11:19:05;;;;;;;8.83;2.53;;;;;;;27.98;39.35;100381.44;124249;1102;103160;-77
2022/07/07 11:21:42;;;;;;;6.90;2.20;;;;;;;27.68;39.58;100385.29;124044;1104;104223;-78
2022/07/07 11:24:19;;;;;;;8.25;2.25;;;;;;;27.39;39.76;100382.70;124213;1106;103126;-78
2022/07/07 11:27:00;;;;;;;5.37;2.30;;;;;;;27.17;40.61;100381.69;124151;1102;104243;-76
2022/07/07 11:29:34;;;;;;;4.90;1.97;;;;;;;27.03;41.13;100387.55;124071;1105;104498;-77
2022/07/07 11:32:11;;;;;;;9.07;2.33;;;;;;;26.99;41.17;100377.80;124002;1102;104357;-76
2022/07/07 11:34:54;;;;;;;9.37;2.07;;;;;;;27.18;41.37;100381.63;124232;1102;104342;-76
2022/07/07 11:37:26;;;;;;;;;;;;;;;27.23;41.16;100379.64;124255;1102;104239;-75
2022/07/07 11:40:00;;;;;;;12.90;2.70;;;;;;;27.23;41.13;100397.63;124250;1102;104351;-76
2022/07/07 11:42:43;;;;;;;2.60;1.90;;;;;;;27.13;41.15;100388.10;124073;1102;102811;-77
2022/07/07 11:45:23;;;;;;;4.67;2.37;;;;;;;27.01;41.62;100387.60;124311;1102;104729;-79